sensor_id;sensor_type;location;lat;lon;timestamp;P1;durP1;ratioP1;P2;durP2;ratioP2
24745;SDS011;12845;52.042;6.838;2023-06-19T00:01:50;9.77;;;6.97;;
24745;SDS011;12845;52.042;6.838;2023-06-19T00:04:16;9.60;;;7.35;;
24745;SDS011;12845;52.042;6.838;2023-06-19T00:06:41;10.48;;;7.40;;
24745;SDS011;12845;52.042;6.838;2023-06-19T00:09:06;9.10;;;7.07;;
24745;SDS011;12845;52.042;6.838;2023-06-19T00:11:32;8.73;;;7.05;;
24745;SDS011;12845;52.042;6.838;2023-06-19T00:13:57;8.80;;;7.35;;
24745;SDS011;12845;52.042;6.838;2023-06-19T00:16:23;8.50;;;7.05;;
24745;SDS011;12845;52.042;6.838;2023-06-19T00:18:50;9.52;;;7.38;;
24745;SDS011;12845;52.042;6.838;2023-06-19T00:21:15;9.82;;;7.75;;
24745;SDS011;12845;52.042;6.838;2023-06-19T00:23:41;10.68;;;7.63;;
24745;SDS011;12845;52.042;6.838;2023-06-19T00:26:06;9.43;;;6.95;;
24745;SDS011;12845;52.042;6.838;2023-06-19T00:28:31;9.40;;;7.75;;
24745;SDS011;12845;52.042;6.838;2023-06-19T00:30:57;9.90;;;7.28;;
24745;SDS011;12845;52.042;6.838;2023-06-19T00:33:22;10.25;;;7.82;;
24745;SDS011;12845;52.042;6.838;2023-06-19T00:35:51;9.52;;;7.20;;
24745;SDS011;12845;52.042;6.838;2023-06-19T00:38:17;8.95;;;7.43;;
24745;SDS011;12845;52.042;6.838;2023-06-19T00:40:42;9.20;;;7.10;;
24745;SDS011;12845;52.042;6.838;2023-06-19T00:43:07;11.35;;;6.97;;
24745;SDS011;12845;52.042;6.838;2023-06-19T00:45:33;8.60;;;7.10;;
24745;SDS011;12845;52.042;6.838;2023-06-19T00:47:58;8.65;;;7.10;;
24745;SDS011;12845;52.042;6.838;2023-06-19T00:50:24;8.35;;;6.47;;
24745;SDS011;12845;52.042;6.838;2023-06-19T00:52:50;9.45;;;7.07;;
24745;SDS011;12845;52.042;6.838;2023-06-19T00:55:16;9.25;;;7.00;;
24745;SDS011;12845;52.042;6.838;2023-06-19T00:57:45;10.65;;;6.38;;
24745;SDS011;12845;52.042;6.838;2023-06-19T01:00:11;10.00;;;6.40;;
24745;SDS011;12845;52.042;6.838;2023-06-19T01:02:40;7.55;;;5.82;;
24745;SDS011;12845;52.042;6.838;2023-06-19T01:05:05;8.57;;;6.10;;
24745;SDS011;12845;52.042;6.838;2023-06-19T01:07:33;7.45;;;5.35;;
24745;SDS011;12845;52.042;6.838;2023-06-19T01:10:05;10.98;;;5.60;;
24745;SDS011;12845;52.042;6.838;2023-06-19T01:15:03;7.40;;;5.88;;
24745;SDS011;12845;52.042;6.838;2023-06-19T01:17:30;8.25;;;5.43;;
24745;SDS011;12845;52.042;6.838;2023-06-19T01:19:57;7.82;;;5.38;;
24745;SDS011;12845;52.042;6.838;2023-06-19T01:24:54;7.88;;;5.38;;
24745;SDS011;12845;52.042;6.838;2023-06-19T01:27:19;6.38;;;5.50;;
24745;SDS011;12845;52.042;6.838;2023-06-19T01:29:46;11.35;;;5.60;;
24745;SDS011;12845;52.042;6.838;2023-06-19T01:34:51;9.48;;;6.15;;
24745;SDS011;12845;52.042;6.838;2023-06-19T01:37:19;8.35;;;5.35;;
24745;SDS011;12845;52.042;6.838;2023-06-19T01:39:45;8.23;;;5.20;;
24745;SDS011;12845;52.042;6.838;2023-06-19T01:42:11;7.00;;;5.57;;
24745;SDS011;12845;52.042;6.838;2023-06-19T01:44:39;6.93;;;5.22;;
24745;SDS011;12845;52.042;6.838;2023-06-19T01:47:09;6.68;;;5.20;;
24745;SDS011;12845;52.042;6.838;2023-06-19T01:49:36;8.35;;;5.78;;
24745;SDS011;12845;52.042;6.838;2023-06-19T01:52:01;8.90;;;5.85;;
24745;SDS011;12845;52.042;6.838;2023-06-19T01:54:26;9.82;;;5.50;;
24745;SDS011;12845;52.042;6.838;2023-06-19T01:56:52;7.50;;;5.55;;
24745;SDS011;12845;52.042;6.838;2023-06-19T01:59:18;7.85;;;5.38;;
24745;SDS011;12845;52.042;6.838;2023-06-19T02:01:43;8.90;;;5.40;;
24745;SDS011;12845;52.042;6.838;2023-06-19T02:04:08;7.38;;;5.80;;
24745;SDS011;12845;52.042;6.838;2023-06-19T02:06:34;6.80;;;5.15;;
24745;SDS011;12845;52.042;6.838;2023-06-19T02:08:59;8.65;;;5.60;;
24745;SDS011;12845;52.042;6.838;2023-06-19T02:11:25;8.55;;;6.30;;
24745;SDS011;12845;52.042;6.838;2023-06-19T02:13:50;8.93;;;6.13;;
24745;SDS011;12845;52.042;6.838;2023-06-19T02:16:15;10.02;;;5.80;;
24745;SDS011;12845;52.042;6.838;2023-06-19T02:18:41;8.48;;;6.10;;
24745;SDS011;12845;52.042;6.838;2023-06-19T02:21:06;7.60;;;5.30;;
24745;SDS011;12845;52.042;6.838;2023-06-19T02:23:31;6.28;;;4.97;;
24745;SDS011;12845;52.042;6.838;2023-06-19T02:25:57;6.35;;;5.28;;
24745;SDS011;12845;52.042;6.838;2023-06-19T02:28:22;6.95;;;4.70;;
24745;SDS011;12845;52.042;6.838;2023-06-19T02:30:48;7.05;;;4.80;;
24745;SDS011;12845;52.042;6.838;2023-06-19T02:33:13;6.78;;;4.45;;
24745;SDS011;12845;52.042;6.838;2023-06-19T02:35:38;6.57;;;4.80;;
24745;SDS011;12845;52.042;6.838;2023-06-19T02:38:06;6.97;;;4.97;;
24745;SDS011;12845;52.042;6.838;2023-06-19T02:40:32;8.05;;;4.90;;
24745;SDS011;12845;52.042;6.838;2023-06-19T02:42:57;7.05;;;5.20;;
24745;SDS011;12845;52.042;6.838;2023-06-19T02:45:22;8.23;;;5.05;;
24745;SDS011;12845;52.042;6.838;2023-06-19T02:47:48;5.57;;;4.45;;
24745;SDS011;12845;52.042;6.838;2023-06-19T02:50:15;7.03;;;4.82;;
24745;SDS011;12845;52.042;6.838;2023-06-19T02:52:40;5.93;;;4.43;;
24745;SDS011;12845;52.042;6.838;2023-06-19T02:55:05;6.70;;;4.53;;
24745;SDS011;12845;52.042;6.838;2023-06-19T02:57:32;6.50;;;4.55;;
24745;SDS011;12845;52.042;6.838;2023-06-19T02:59:57;8.35;;;3.90;;
24745;SDS011;12845;52.042;6.838;2023-06-19T03:02:22;6.47;;;3.92;;
24745;SDS011;12845;52.042;6.838;2023-06-19T03:04:48;5.55;;;3.58;;
24745;SDS011;12845;52.042;6.838;2023-06-19T03:07:14;5.25;;;3.53;;
24745;SDS011;12845;52.042;6.838;2023-06-19T03:09:40;5.82;;;4.00;;
24745;SDS011;12845;52.042;6.838;2023-06-19T03:12:05;5.47;;;3.42;;
24745;SDS011;12845;52.042;6.838;2023-06-19T03:14:31;5.55;;;3.83;;
24745;SDS011;12845;52.042;6.838;2023-06-19T03:16:56;6.60;;;3.85;;
24745;SDS011;12845;52.042;6.838;2023-06-19T03:19:22;6.25;;;4.40;;
24745;SDS011;12845;52.042;6.838;2023-06-19T03:21:47;5.30;;;3.95;;
24745;SDS011;12845;52.042;6.838;2023-06-19T03:24:12;8.05;;;4.13;;
24745;SDS011;12845;52.042;6.838;2023-06-19T03:26:38;6.15;;;3.55;;
24745;SDS011;12845;52.042;6.838;2023-06-19T03:29:04;6.43;;;4.00;;
24745;SDS011;12845;52.042;6.838;2023-06-19T03:31:29;6.55;;;4.53;;
24745;SDS011;12845;52.042;6.838;2023-06-19T03:33:56;5.88;;;4.13;;
24745;SDS011;12845;52.042;6.838;2023-06-19T03:36:21;5.90;;;4.03;;
24745;SDS011;12845;52.042;6.838;2023-06-19T03:38:48;6.53;;;4.38;;
24745;SDS011;12845;52.042;6.838;2023-06-19T03:41:13;6.53;;;4.30;;
24745;SDS011;12845;52.042;6.838;2023-06-19T03:43:38;7.05;;;4.90;;
24745;SDS011;12845;52.042;6.838;2023-06-19T03:46:04;6.25;;;4.03;;
24745;SDS011;12845;52.042;6.838;2023-06-19T03:48:30;6.57;;;4.57;;
24745;SDS011;12845;52.042;6.838;2023-06-19T03:50:55;6.18;;;4.30;;
24745;SDS011;12845;52.042;6.838;2023-06-19T03:53:21;5.32;;;4.03;;
24745;SDS011;12845;52.042;6.838;2023-06-19T03:55:46;7.97;;;4.15;;
24745;SDS011;12845;52.042;6.838;2023-06-19T03:58:12;6.22;;;3.75;;
24745;SDS011;12845;52.042;6.838;2023-06-19T04:00:37;6.93;;;4.53;;
24745;SDS011;12845;52.042;6.838;2023-06-19T04:03:02;5.60;;;4.00;;
24745;SDS011;12845;52.042;6.838;2023-06-19T04:05:28;5.78;;;3.65;;
24745;SDS011;12845;52.042;6.838;2023-06-19T04:07:53;5.47;;;4.10;;
24745;SDS011;12845;52.042;6.838;2023-06-19T04:10:18;5.82;;;3.70;;
24745;SDS011;12845;52.042;6.838;2023-06-19T04:12:44;6.90;;;3.75;;
24745;SDS011;12845;52.042;6.838;2023-06-19T04:15:10;6.35;;;4.13;;
24745;SDS011;12845;52.042;6.838;2023-06-19T04:17:36;7.72;;;4.18;;
24745;SDS011;12845;52.042;6.838;2023-06-19T04:20:01;5.82;;;3.72;;
24745;SDS011;12845;52.042;6.838;2023-06-19T04:22:32;6.05;;;3.85;;
24745;SDS011;12845;52.042;6.838;2023-06-19T04:24:57;8.70;;;4.47;;
24745;SDS011;12845;52.042;6.838;2023-06-19T04:27:22;7.03;;;4.43;;
24745;SDS011;12845;52.042;6.838;2023-06-19T04:29:48;5.45;;;4.07;;
24745;SDS011;12845;52.042;6.838;2023-06-19T04:32:13;6.78;;;4.28;;
24745;SDS011;12845;52.042;6.838;2023-06-19T04:34:38;6.45;;;3.92;;
24745;SDS011;12845;52.042;6.838;2023-06-19T04:37:04;7.55;;;4.13;;
24745;SDS011;12845;52.042;6.838;2023-06-19T04:39:30;5.68;;;3.80;;
24745;SDS011;12845;52.042;6.838;2023-06-19T04:41:55;7.15;;;3.90;;
24745;SDS011;12845;52.042;6.838;2023-06-19T04:44:20;6.05;;;3.83;;
24745;SDS011;12845;52.042;6.838;2023-06-19T04:46:46;5.60;;;3.47;;
24745;SDS011;12845;52.042;6.838;2023-06-19T04:49:11;6.00;;;3.67;;
24745;SDS011;12845;52.042;6.838;2023-06-19T04:51:38;6.15;;;3.38;;
24745;SDS011;12845;52.042;6.838;2023-06-19T04:54:03;5.57;;;3.95;;
24745;SDS011;12845;52.042;6.838;2023-06-19T04:56:28;6.28;;;3.67;;
24745;SDS011;12845;52.042;6.838;2023-06-19T04:58:55;6.05;;;3.70;;
24745;SDS011;12845;52.042;6.838;2023-06-19T05:01:25;5.00;;;3.50;;
24745;SDS011;12845;52.042;6.838;2023-06-19T05:03:55;5.07;;;2.65;;
24745;SDS011;12845;52.042;6.838;2023-06-19T05:06:24;6.90;;;3.30;;
24745;SDS011;12845;52.042;6.838;2023-06-19T05:08:49;5.00;;;3.37;;
24745;SDS011;12845;52.042;6.838;2023-06-19T05:11:15;6.80;;;4.05;;
24745;SDS011;12845;52.042;6.838;2023-06-19T05:13:40;7.07;;;3.90;;
24745;SDS011;12845;52.042;6.838;2023-06-19T05:16:06;7.35;;;4.60;;
24745;SDS011;12845;52.042;6.838;2023-06-19T05:18:31;6.97;;;3.83;;
24745;SDS011;12845;52.042;6.838;2023-06-19T05:20:58;7.15;;;4.28;;
24745;SDS011;12845;52.042;6.838;2023-06-19T05:23:26;7.20;;;4.18;;
24745;SDS011;12845;52.042;6.838;2023-06-19T05:25:52;6.50;;;4.10;;
24745;SDS011;12845;52.042;6.838;2023-06-19T05:28:17;5.75;;;3.75;;
24745;SDS011;12845;52.042;6.838;2023-06-19T05:30:42;6.18;;;4.18;;
24745;SDS011;12845;52.042;6.838;2023-06-19T05:33:08;7.35;;;3.67;;
24745;SDS011;12845;52.042;6.838;2023-06-19T05:35:34;6.80;;;4.47;;
24745;SDS011;12845;52.042;6.838;2023-06-19T05:38:00;5.43;;;3.80;;
24745;SDS011;12845;52.042;6.838;2023-06-19T05:40:25;5.85;;;3.63;;
24745;SDS011;12845;52.042;6.838;2023-06-19T05:42:50;6.15;;;3.72;;
24745;SDS011;12845;52.042;6.838;2023-06-19T05:45:16;5.63;;;3.80;;
24745;SDS011;12845;52.042;6.838;2023-06-19T05:47:41;8.20;;;4.10;;
24745;SDS011;12845;52.042;6.838;2023-06-19T05:50:07;7.45;;;4.57;;
24745;SDS011;12845;52.042;6.838;2023-06-19T05:52:32;5.95;;;4.03;;
24745;SDS011;12845;52.042;6.838;2023-06-19T05:54:58;7.70;;;4.13;;
24745;SDS011;12845;52.042;6.838;2023-06-19T05:57:23;6.32;;;4.32;;
24745;SDS011;12845;52.042;6.838;2023-06-19T05:59:49;6.40;;;4.18;;
24745;SDS011;12845;52.042;6.838;2023-06-19T06:02:17;7.30;;;4.93;;
24745;SDS011;12845;52.042;6.838;2023-06-19T06:04:43;9.13;;;4.40;;
24745;SDS011;12845;52.042;6.838;2023-06-19T06:07:09;7.78;;;4.50;;
24745;SDS011;12845;52.042;6.838;2023-06-19T06:09:34;8.00;;;4.57;;
24745;SDS011;12845;52.042;6.838;2023-06-19T06:12:00;7.90;;;5.03;;
24745;SDS011;12845;52.042;6.838;2023-06-19T06:14:25;7.95;;;5.03;;
24745;SDS011;12845;52.042;6.838;2023-06-19T06:16:51;6.68;;;4.60;;
24745;SDS011;12845;52.042;6.838;2023-06-19T06:19:18;6.95;;;4.35;;
24745;SDS011;12845;52.042;6.838;2023-06-19T06:21:44;9.48;;;4.22;;
24745;SDS011;12845;52.042;6.838;2023-06-19T06:24:10;6.97;;;4.50;;
24745;SDS011;12845;52.042;6.838;2023-06-19T06:26:35;8.23;;;4.78;;
24745;SDS011;12845;52.042;6.838;2023-06-19T06:29:02;6.70;;;4.45;;
24745;SDS011;12845;52.042;6.838;2023-06-19T06:31:27;6.22;;;4.35;;
24745;SDS011;12845;52.042;6.838;2023-06-19T06:33:52;6.88;;;4.78;;
24745;SDS011;12845;52.042;6.838;2023-06-19T06:36:18;7.25;;;4.10;;
24745;SDS011;12845;52.042;6.838;2023-06-19T06:38:43;7.05;;;4.45;;
24745;SDS011;12845;52.042;6.838;2023-06-19T06:41:09;7.10;;;4.45;;
24745;SDS011;12845;52.042;6.838;2023-06-19T06:43:34;7.22;;;4.60;;
24745;SDS011;12845;52.042;6.838;2023-06-19T06:45:59;7.13;;;4.28;;
24745;SDS011;12845;52.042;6.838;2023-06-19T06:48:25;9.88;;;5.40;;
24745;SDS011;12845;52.042;6.838;2023-06-19T06:50:50;7.15;;;4.90;;
24745;SDS011;12845;52.042;6.838;2023-06-19T06:53:23;6.93;;;4.72;;
24745;SDS011;12845;52.042;6.838;2023-06-19T06:55:50;6.68;;;4.80;;
24745;SDS011;12845;52.042;6.838;2023-06-19T06:58:15;6.15;;;4.18;;
24745;SDS011;12845;52.042;6.838;2023-06-19T07:00:42;7.20;;;5.20;;
24745;SDS011;12845;52.042;6.838;2023-06-19T07:03:08;8.40;;;4.60;;
24745;SDS011;12845;52.042;6.838;2023-06-19T07:05:33;7.45;;;4.82;;
24745;SDS011;12845;52.042;6.838;2023-06-19T07:07:58;7.28;;;5.32;;
24745;SDS011;12845;52.042;6.838;2023-06-19T07:10:24;8.02;;;4.97;;
24745;SDS011;12845;52.042;6.838;2023-06-19T07:12:49;11.48;;;5.68;;
24745;SDS011;12845;52.042;6.838;2023-06-19T07:15:16;8.40;;;5.65;;
24745;SDS011;12845;52.042;6.838;2023-06-19T07:17:42;8.23;;;5.80;;
24745;SDS011;12845;52.042;6.838;2023-06-19T07:20:09;8.27;;;6.05;;
24745;SDS011;12845;52.042;6.838;2023-06-19T07:22:34;7.25;;;5.97;;
24745;SDS011;12845;52.042;6.838;2023-06-19T07:25:00;7.75;;;5.70;;
24745;SDS011;12845;52.042;6.838;2023-06-19T07:27:26;8.27;;;5.32;;
24745;SDS011;12845;52.042;6.838;2023-06-19T07:29:52;7.20;;;5.30;;
24745;SDS011;12845;52.042;6.838;2023-06-19T07:32:18;8.38;;;5.60;;
24745;SDS011;12845;52.042;6.838;2023-06-19T07:34:44;6.43;;;4.88;;
24745;SDS011;12845;52.042;6.838;2023-06-19T07:37:10;8.48;;;4.97;;
24745;SDS011;12845;52.042;6.838;2023-06-19T07:39:42;6.88;;;5.45;;
24745;SDS011;12845;52.042;6.838;2023-06-19T07:42:09;6.78;;;4.85;;
24745;SDS011;12845;52.042;6.838;2023-06-19T07:44:35;8.27;;;4.45;;
24745;SDS011;12845;52.042;6.838;2023-06-19T07:47:01;9.70;;;4.95;;
24745;SDS011;12845;52.042;6.838;2023-06-19T07:49:26;7.63;;;4.50;;
24745;SDS011;12845;52.042;6.838;2023-06-19T07:51:51;7.32;;;5.07;;
24745;SDS011;12845;52.042;6.838;2023-06-19T07:54:17;5.90;;;4.63;;
24745;SDS011;12845;52.042;6.838;2023-06-19T07:56:42;6.60;;;4.50;;
24745;SDS011;12845;52.042;6.838;2023-06-19T07:59:07;5.63;;;4.40;;
24745;SDS011;12845;52.042;6.838;2023-06-19T08:01:33;7.38;;;4.45;;
24745;SDS011;12845;52.042;6.838;2023-06-19T08:03:58;6.25;;;4.80;;
24745;SDS011;12845;52.042;6.838;2023-06-19T08:06:23;7.10;;;4.63;;
24745;SDS011;12845;52.042;6.838;2023-06-19T08:08:49;9.40;;;4.20;;
24745;SDS011;12845;52.042;6.838;2023-06-19T08:11:14;6.32;;;5.22;;
24745;SDS011;12845;52.042;6.838;2023-06-19T08:13:39;5.82;;;4.75;;
24745;SDS011;12845;52.042;6.838;2023-06-19T08:16:05;9.30;;;5.20;;
24745;SDS011;12845;52.042;6.838;2023-06-19T08:18:31;6.65;;;4.38;;
24745;SDS011;12845;52.042;6.838;2023-06-19T08:20:58;9.15;;;4.22;;
24745;SDS011;12845;52.042;6.838;2023-06-19T08:23:24;8.13;;;4.45;;
24745;SDS011;12845;52.042;6.838;2023-06-19T08:25:49;7.43;;;4.35;;
24745;SDS011;12845;52.042;6.838;2023-06-19T08:28:16;8.60;;;4.00;;
24745;SDS011;12845;52.042;6.838;2023-06-19T08:30:42;7.00;;;4.70;;
24745;SDS011;12845;52.042;6.838;2023-06-19T08:33:09;6.85;;;3.65;;
24745;SDS011;12845;52.042;6.838;2023-06-19T08:35:35;6.68;;;4.03;;
24745;SDS011;12845;52.042;6.838;2023-06-19T08:38:00;7.53;;;4.07;;
24745;SDS011;12845;52.042;6.838;2023-06-19T08:40:26;5.95;;;3.65;;
24745;SDS011;12845;52.042;6.838;2023-06-19T08:42:51;5.63;;;3.45;;
24745;SDS011;12845;52.042;6.838;2023-06-19T08:45:17;8.32;;;3.92;;
24745;SDS011;12845;52.042;6.838;2023-06-19T08:47:46;5.47;;;4.05;;
24745;SDS011;12845;52.042;6.838;2023-06-19T08:50:15;6.65;;;4.05;;
24745;SDS011;12845;52.042;6.838;2023-06-19T08:52:41;5.32;;;3.72;;
24745;SDS011;12845;52.042;6.838;2023-06-19T08:55:06;6.18;;;3.95;;
24745;SDS011;12845;52.042;6.838;2023-06-19T08:57:33;5.80;;;3.60;;
24745;SDS011;12845;52.042;6.838;2023-06-19T08:59:59;5.90;;;3.20;;
24745;SDS011;12845;52.042;6.838;2023-06-19T09:02:25;4.75;;;3.33;;
24745;SDS011;12845;52.042;6.838;2023-06-19T09:05:08;8.07;;;3.75;;
24745;SDS011;12845;52.042;6.838;2023-06-19T09:07:40;6.55;;;3.15;;
24745;SDS011;12845;52.042;6.838;2023-06-19T09:10:16;5.45;;;3.13;;
24745;SDS011;12845;52.042;6.838;2023-06-19T09:12:44;5.38;;;3.75;;
24745;SDS011;12845;52.042;6.838;2023-06-19T09:15:20;4.00;;;2.88;;
24745;SDS011;12845;52.042;6.838;2023-06-19T09:17:46;4.85;;;3.58;;
24745;SDS011;12845;52.042;6.838;2023-06-19T09:20:11;5.72;;;3.40;;
24745;SDS011;12845;52.042;6.838;2023-06-19T09:22:37;4.93;;;3.55;;
24745;SDS011;12845;52.042;6.838;2023-06-19T09:25:03;8.00;;;3.15;;
24745;SDS011;12845;52.042;6.838;2023-06-19T09:27:32;6.05;;;4.00;;
24745;SDS011;12845;52.042;6.838;2023-06-19T09:29:58;4.88;;;3.67;;
24745;SDS011;12845;52.042;6.838;2023-06-19T09:32:24;6.65;;;3.45;;
24745;SDS011;12845;52.042;6.838;2023-06-19T09:34:52;5.88;;;3.35;;
24745;SDS011;12845;52.042;6.838;2023-06-19T09:37:21;6.60;;;3.63;;
24745;SDS011;12845;52.042;6.838;2023-06-19T09:39:52;6.57;;;3.78;;
24745;SDS011;12845;52.042;6.838;2023-06-19T09:42:34;6.93;;;4.20;;
24745;SDS011;12845;52.042;6.838;2023-06-19T09:45:03;7.00;;;4.67;;
24745;SDS011;12845;52.042;6.838;2023-06-19T09:47:52;5.97;;;4.22;;
24745;SDS011;12845;52.042;6.838;2023-06-19T09:50:17;6.72;;;4.32;;
24745;SDS011;12845;52.042;6.838;2023-06-19T09:52:42;6.05;;;3.95;;
24745;SDS011;12845;52.042;6.838;2023-06-19T09:55:09;8.70;;;4.97;;
24745;SDS011;12845;52.042;6.838;2023-06-19T09:57:40;9.68;;;5.57;;
24745;SDS011;12845;52.042;6.838;2023-06-19T10:00:07;6.90;;;4.93;;
24745;SDS011;12845;52.042;6.838;2023-06-19T10:02:44;7.07;;;4.80;;
24745;SDS011;12845;52.042;6.838;2023-06-19T10:05:11;8.02;;;5.45;;
24745;SDS011;12845;52.042;6.838;2023-06-19T10:07:38;10.30;;;6.15;;
24745;SDS011;12845;52.042;6.838;2023-06-19T10:10:08;7.55;;;5.25;;
24745;SDS011;12845;52.042;6.838;2023-06-19T10:12:44;10.63;;;6.80;;
24745;SDS011;12845;52.042;6.838;2023-06-19T10:15:18;8.27;;;6.63;;
24745;SDS011;12845;52.042;6.838;2023-06-19T10:20:20;8.40;;;6.13;;
24745;SDS011;12845;52.042;6.838;2023-06-19T10:22:50;8.40;;;6.68;;
24745;SDS011;12845;52.042;6.838;2023-06-19T10:25:20;8.63;;;6.57;;
24745;SDS011;12845;52.042;6.838;2023-06-19T10:27:47;10.80;;;7.32;;
24745;SDS011;12845;52.042;6.838;2023-06-19T10:30:19;10.93;;;8.30;;
24745;SDS011;12845;52.042;6.838;2023-06-19T10:32:45;8.95;;;7.60;;
24745;SDS011;12845;52.042;6.838;2023-06-19T10:35:14;8.73;;;6.60;;
24745;SDS011;12845;52.042;6.838;2023-06-19T10:37:40;11.68;;;6.70;;
24745;SDS011;12845;52.042;6.838;2023-06-19T10:40:07;8.90;;;7.03;;
24745;SDS011;12845;52.042;6.838;2023-06-19T10:42:35;10.32;;;8.63;;
24745;SDS011;12845;52.042;6.838;2023-06-19T10:45:05;8.70;;;7.43;;
24745;SDS011;12845;52.042;6.838;2023-06-19T10:47:32;11.85;;;7.63;;
24745;SDS011;12845;52.042;6.838;2023-06-19T10:49:58;9.88;;;7.82;;
24745;SDS011;12845;52.042;6.838;2023-06-19T10:52:23;9.10;;;7.82;;
24745;SDS011;12845;52.042;6.838;2023-06-19T10:54:53;9.98;;;8.75;;
24745;SDS011;12845;52.042;6.838;2023-06-19T10:57:25;10.02;;;7.88;;
24745;SDS011;12845;52.042;6.838;2023-06-19T10:59:52;12.35;;;9.70;;
24745;SDS011;12845;52.042;6.838;2023-06-19T11:02:18;10.45;;;9.30;;
24745;SDS011;12845;52.042;6.838;2023-06-19T11:04:43;10.88;;;9.38;;
24745;SDS011;12845;52.042;6.838;2023-06-19T11:07:09;11.70;;;9.32;;
24745;SDS011;12845;52.042;6.838;2023-06-19T11:09:35;13.32;;;10.05;;
24745;SDS011;12845;52.042;6.838;2023-06-19T11:12:00;11.95;;;8.52;;
24745;SDS011;12845;52.042;6.838;2023-06-19T11:14:28;11.38;;;9.68;;
24745;SDS011;12845;52.042;6.838;2023-06-19T11:19:20;9.32;;;7.72;;
24745;SDS011;12845;52.042;6.838;2023-06-19T11:21:51;10.80;;;8.40;;
24745;SDS011;12845;52.042;6.838;2023-06-19T11:24:18;10.13;;;8.35;;
24745;SDS011;12845;52.042;6.838;2023-06-19T11:26:45;8.98;;;7.13;;
24745;SDS011;12845;52.042;6.838;2023-06-19T11:29:15;12.13;;;6.97;;
24745;SDS011;12845;52.042;6.838;2023-06-19T11:34:09;11.48;;;8.23;;
24745;SDS011;12845;52.042;6.838;2023-06-19T11:36:36;10.48;;;7.65;;
24745;SDS011;12845;52.042;6.838;2023-06-19T11:39:02;11.10;;;8.23;;
24745;SDS011;12845;52.042;6.838;2023-06-19T11:41:29;10.82;;;8.65;;
24745;SDS011;12845;52.042;6.838;2023-06-19T11:43:58;10.48;;;7.43;;
24745;SDS011;12845;52.042;6.838;2023-06-19T11:46:28;10.80;;;8.23;;
24745;SDS011;12845;52.042;6.838;2023-06-19T11:51:57;8.75;;;7.45;;
24745;SDS011;12845;52.042;6.838;2023-06-19T11:54:22;12.98;;;9.35;;
24745;SDS011;12845;52.042;6.838;2023-06-19T11:56:48;13.10;;;8.57;;
24745;SDS011;12845;52.042;6.838;2023-06-19T11:59:13;10.65;;;8.00;;
24745;SDS011;12845;52.042;6.838;2023-06-19T12:01:39;9.52;;;8.00;;
24745;SDS011;12845;52.042;6.838;2023-06-19T12:04:05;10.73;;;7.72;;
24745;SDS011;12845;52.042;6.838;2023-06-19T12:06:31;11.10;;;8.63;;
24745;SDS011;12845;52.042;6.838;2023-06-19T12:08:56;10.60;;;7.88;;
24745;SDS011;12845;52.042;6.838;2023-06-19T12:11:22;10.95;;;8.32;;
24745;SDS011;12845;52.042;6.838;2023-06-19T12:13:47;9.18;;;7.80;;
24745;SDS011;12845;52.042;6.838;2023-06-19T12:16:13;9.88;;;8.18;;
24745;SDS011;12845;52.042;6.838;2023-06-19T12:18:39;12.68;;;8.30;;
24745;SDS011;12845;52.042;6.838;2023-06-19T12:21:05;14.32;;;7.80;;
24745;SDS011;12845;52.042;6.838;2023-06-19T12:23:30;11.02;;;7.68;;
24745;SDS011;12845;52.042;6.838;2023-06-19T12:25:56;10.32;;;7.85;;
24745;SDS011;12845;52.042;6.838;2023-06-19T12:28:22;10.98;;;7.93;;
24745;SDS011;12845;52.042;6.838;2023-06-19T12:30:47;10.55;;;8.38;;
24745;SDS011;12845;52.042;6.838;2023-06-19T12:35:42;10.75;;;8.25;;
24745;SDS011;12845;52.042;6.838;2023-06-19T12:38:08;10.05;;;8.57;;
24745;SDS011;12845;52.042;6.838;2023-06-19T12:40:34;10.85;;;8.30;;
24745;SDS011;12845;52.042;6.838;2023-06-19T12:43:01;10.82;;;8.38;;
24745;SDS011;12845;52.042;6.838;2023-06-19T12:45:26;12.57;;;9.57;;
24745;SDS011;12845;52.042;6.838;2023-06-19T12:47:51;10.02;;;7.97;;
24745;SDS011;12845;52.042;6.838;2023-06-19T12:50:17;11.52;;;8.48;;
24745;SDS011;12845;52.042;6.838;2023-06-19T12:52:42;11.90;;;8.88;;
24745;SDS011;12845;52.042;6.838;2023-06-19T12:55:07;11.85;;;9.27;;
24745;SDS011;12845;52.042;6.838;2023-06-19T12:57:33;9.43;;;7.38;;
24745;SDS011;12845;52.042;6.838;2023-06-19T12:59:59;9.25;;;8.02;;
24745;SDS011;12845;52.042;6.838;2023-06-19T13:02:24;10.50;;;7.45;;
24745;SDS011;12845;52.042;6.838;2023-06-19T13:04:49;11.13;;;8.43;;
24745;SDS011;12845;52.042;6.838;2023-06-19T13:07:15;10.52;;;8.07;;
24745;SDS011;12845;52.042;6.838;2023-06-19T13:09:40;11.40;;;8.50;;
24745;SDS011;12845;52.042;6.838;2023-06-19T13:12:06;13.15;;;7.80;;
24745;SDS011;12845;52.042;6.838;2023-06-19T13:14:32;14.27;;;8.30;;
24745;SDS011;12845;52.042;6.838;2023-06-19T13:16:57;11.25;;;7.70;;
24745;SDS011;12845;52.042;6.838;2023-06-19T13:19:23;11.60;;;7.60;;
24745;SDS011;12845;52.042;6.838;2023-06-19T13:21:49;10.63;;;7.65;;
24745;SDS011;12845;52.042;6.838;2023-06-19T13:24:15;9.75;;;7.97;;
24745;SDS011;12845;52.042;6.838;2023-06-19T13:26:41;10.75;;;8.73;;
24745;SDS011;12845;52.042;6.838;2023-06-19T13:29:10;12.20;;;10.10;;
24745;SDS011;12845;52.042;6.838;2023-06-19T13:31:36;13.68;;;9.10;;
24745;SDS011;12845;52.042;6.838;2023-06-19T13:34:02;10.32;;;8.48;;
24745;SDS011;12845;52.042;6.838;2023-06-19T13:36:27;10.25;;;8.23;;
24745;SDS011;12845;52.042;6.838;2023-06-19T13:38:53;10.77;;;8.80;;
24745;SDS011;12845;52.042;6.838;2023-06-19T13:41:19;10.25;;;8.18;;
24745;SDS011;12845;52.042;6.838;2023-06-19T13:43:44;11.95;;;8.43;;
24745;SDS011;12845;52.042;6.838;2023-06-19T13:46:11;11.13;;;7.85;;
24745;SDS011;12845;52.042;6.838;2023-06-19T13:48:36;12.60;;;7.47;;
24745;SDS011;12845;52.042;6.838;2023-06-19T13:51:02;10.25;;;7.22;;
24745;SDS011;12845;52.042;6.838;2023-06-19T13:53:27;9.95;;;7.75;;
24745;SDS011;12845;52.042;6.838;2023-06-19T13:55:57;12.50;;;8.60;;
24745;SDS011;12845;52.042;6.838;2023-06-19T13:58:22;13.23;;;8.38;;
24745;SDS011;12845;52.042;6.838;2023-06-19T14:00:47;9.93;;;7.90;;
24745;SDS011;12845;52.042;6.838;2023-06-19T14:03:13;8.95;;;7.40;;
24745;SDS011;12845;52.042;6.838;2023-06-19T14:05:39;9.68;;;7.70;;
24745;SDS011;12845;52.042;6.838;2023-06-19T14:08:04;8.52;;;7.30;;
24745;SDS011;12845;52.042;6.838;2023-06-19T14:10:30;11.13;;;8.45;;
24745;SDS011;12845;52.042;6.838;2023-06-19T14:12:56;9.23;;;7.25;;
24745;SDS011;12845;52.042;6.838;2023-06-19T14:15:21;10.18;;;7.45;;
24745;SDS011;12845;52.042;6.838;2023-06-19T14:17:47;9.15;;;7.32;;
24745;SDS011;12845;52.042;6.838;2023-06-19T14:20:12;10.73;;;7.30;;
24745;SDS011;12845;52.042;6.838;2023-06-19T14:22:38;9.50;;;7.40;;
24745;SDS011;12845;52.042;6.838;2023-06-19T14:25:03;9.20;;;7.93;;
24745;SDS011;12845;52.042;6.838;2023-06-19T14:27:29;11.02;;;7.50;;
24745;SDS011;12845;52.042;6.838;2023-06-19T14:29:54;9.38;;;7.70;;
24745;SDS011;12845;52.042;6.838;2023-06-19T14:32:20;8.73;;;6.63;;
24745;SDS011;12845;52.042;6.838;2023-06-19T14:34:47;10.52;;;7.55;;
24745;SDS011;12845;52.042;6.838;2023-06-19T14:37:12;9.55;;;7.72;;
24745;SDS011;12845;52.042;6.838;2023-06-19T14:39:37;7.95;;;6.63;;
24745;SDS011;12845;52.042;6.838;2023-06-19T14:42:04;10.00;;;7.72;;
24745;SDS011;12845;52.042;6.838;2023-06-19T14:44:30;10.40;;;7.65;;
24745;SDS011;12845;52.042;6.838;2023-06-19T14:46:55;13.55;;;7.57;;
24745;SDS011;12845;52.042;6.838;2023-06-19T14:49:20;9.90;;;7.60;;
24745;SDS011;12845;52.042;6.838;2023-06-19T14:51:46;8.77;;;6.68;;
24745;SDS011;12845;52.042;6.838;2023-06-19T14:54:11;8.80;;;7.68;;
24745;SDS011;12845;52.042;6.838;2023-06-19T14:56:38;11.40;;;7.82;;
24745;SDS011;12845;52.042;6.838;2023-06-19T14:59:03;10.05;;;8.60;;
24745;SDS011;12845;52.042;6.838;2023-06-19T15:01:28;10.95;;;8.73;;